Time;durP1;ratioP1;P1;durP2;ratioP2;P2;SDS_P1;SDS_P2;PMS_P1;PMS_P2;Temp;Humidity;BMP_temperature;BMP_pressure;BME280_temperature;BME280_humidity;BME280_pressure;Samples;Min_cycle;Max_cycle;Signal;HPM_P1;HPM_P2
2022/02/23 00:01:48;;;;;;;0.85;0.80;;;6.70;99.90;;;;;;5069418;28;20512;-83
2022/02/23 00:04:15;;;;;;;0.57;0.57;;;;;;;;;;5068466;28;20203;-83
2022/02/23 00:06:42;;;;;;;1.38;0.68;;;;;;;;;;5068381;28;20286;-85
2022/02/23 00:09:10;;;;;;;2.65;1.17;;;;;;;;;;5068436;28;20240;-83
2022/02/23 00:11:37;;;;;;;1.20;1.10;;;;;;;;;;5068865;28;20226;-83
2022/02/23 00:14:04;;;;;;;3.67;1.15;;;6.30;99.90;;;;;;5068717;28;20284;-83
2022/02/23 00:16:31;;;;;;;2.55;0.70;;;;;;;;;;5068298;28;20678;-83
2022/02/23 00:18:59;;;;;;;2.15;1.20;;;7.00;99.90;;;;;;5068154;28;20199;-82
2022/02/23 00:21:26;;;;;;;0.63;0.63;;;7.10;99.90;;;;;;5068354;28;20261;-84
2022/02/23 00:23:53;;;;;;;6.78;0.95;;;7.10;99.90;;;;;;5068162;28;20206;-83
2022/02/23 00:26:20;;;;;;;1.13;0.55;;;;;;;;;;5067727;28;20233;-83
2022/02/23 00:28:47;;;;;;;2.92;0.68;;;;;;;;;;5067518;28;20317;-83
2022/02/23 00:31:14;;;;;;;2.97;1.02;;;;;;;;;;5068726;28;20222;-84
2022/02/23 00:33:41;;;;;;;1.15;0.95;;;;;;;;;;5067756;28;20580;-83
2022/02/23 00:36:10;;;;;;;7.90;0.80;;;;;;;;;;5067015;28;20290;-84
2022/02/23 00:38:37;;;;;;;3.15;1.00;;;;;;;;;;5068288;28;20219;-83
2022/02/23 00:41:04;;;;;;;0.80;0.75;;;7.20;99.90;;;;;;5061048;28;20226;-84
2022/02/23 00:43:31;;;;;;;0.40;0.40;;;6.80;99.90;;;;;;5068126;28;20252;-83
2022/02/23 00:45:58;;;;;;;0.82;0.75;;;7.00;99.90;;;;;;5067740;28;20221;-83
2022/02/23 00:48:25;;;;;;;2.40;0.70;;;;;;;;;;5067909;28;20272;-84
2022/02/23 00:50:52;;;;;;;1.67;0.85;;;;;;;;;;5066867;28;20623;-83
2022/02/23 00:53:20;;;;;;;1.90;0.60;;;7.00;99.90;;;;;;5068035;28;20204;-83
2022/02/23 00:55:47;;;;;;;0.60;0.60;;;;;;;;;;5067692;28;20224;-83
2022/02/23 00:58:14;;;;;;;2.58;1.02;;;6.90;99.90;;;;;;5065486;28;20207;-84
2022/02/23 01:00:41;;;;;;;1.23;0.90;;;6.90;99.90;;;;;;5059801;28;20665;-82
2022/02/23 01:03:08;;;;;;;1.70;1.15;;;7.10;99.90;;;;;;5067627;28;20203;-83
2022/02/23 01:05:35;;;;;;;1.08;0.77;;;;;;;;;;5067151;28;20280;-83
2022/02/23 01:08:03;;;;;;;1.20;1.10;;;;;;;;;;5066858;28;20215;-83
2022/02/23 01:10:33;;;;;;;0.88;0.70;;;7.10;99.90;;;;;;5067733;28;20199;-82
2022/02/23 01:13:02;;;;;;;1.02;0.80;;;;;;;;;;5067284;28;20187;-83
2022/02/23 01:15:30;;;;;;;1.05;0.65;;;7.00;99.90;;;;;;5067516;28;20473;-83
2022/02/23 01:17:57;;;;;;;1.67;0.85;;;;;;;;;;5061159;28;20203;-83
2022/02/23 01:20:25;;;;;;;0.90;0.80;;;;;;;;;;5067327;28;20195;-83
2022/02/23 01:22:56;;;;;;;2.20;0.80;;;;;;;;;;5066557;28;20196;-84
2022/02/23 01:25:25;;;;;;;1.65;0.93;;;;;;;;;;5067272;28;20191;-84
2022/02/23 01:27:54;;;;;;;1.17;1.00;;;7.00;99.90;;;;;;5064980;28;20756;-84
2022/02/23 01:30:22;;;;;;;1.67;0.80;;;7.00;99.90;;;;;;5067328;28;20227;-84
2022/02/23 01:32:50;;;;;;;0.82;0.80;;;6.80;99.90;;;;;;5066786;28;20211;-84
2022/02/23 01:35:18;;;;;;;1.27;0.85;;;;;;;;;;5060666;28;20219;-84
2022/02/23 01:37:46;;;;;;;3.72;1.55;;;5.90;99.90;;;;;;5066596;28;20733;-83
2022/02/23 01:40:14;;;;;;;0.95;0.73;;;6.70;99.90;;;;;;5061402;28;20219;-83
2022/02/23 01:42:41;;;;;;;3.03;2.03;;;6.80;99.90;;;;;;5056515;28;20218;-83
2022/02/23 01:45:11;;;;;;;2.55;1.00;;;6.90;99.90;;;;;;5066731;28;20260;-83
2022/02/23 01:47:38;;;;;;;1.83;1.20;;;6.70;99.90;;;;;;5066857;28;20245;-83
2022/02/23 01:50:06;;;;;;;1.08;0.98;;;6.90;99.90;;;;;;5067636;28;20227;-83
2022/02/23 01:52:33;;;;;;;5.72;1.00;;;6.70;99.90;;;;;;5066776;28;20206;-83
2022/02/23 01:55:02;;;;;;;3.22;1.60;;;6.70;99.90;;;;;;5067089;28;20206;-83
2022/02/23 01:57:29;;;;;;;4.15;1.50;;;6.70;99.90;;;;;;5065801;28;20206;-83
2022/02/23 01:59:56;;;;;;;1.75;0.85;;;6.70;99.90;;;;;;5066630;28;20194;-83
2022/02/23 02:02:26;;;;;;;0.88;0.88;;;6.70;99.90;;;;;;5065140;28;20203;-83
2022/02/23 02:04:53;;;;;;;3.83;0.73;;;6.50;99.90;;;;;;5067281;28;20282;-85
2022/02/23 02:07:21;;;;;;;0.40;0.35;;;;;;;;;;5066856;28;20195;-86
2022/02/23 02:09:49;;;;;;;1.10;0.80;;;;;;;;;;5066243;28;20243;-86
2022/02/23 02:12:17;;;;;;;1.65;0.85;;;;;;;;;;5067022;28;20199;-86
2022/02/23 02:14:45;;;;;;;0.70;0.60;;;;;;;;;;5066846;28;20290;-86
2022/02/23 02:17:13;;;;;;;1.05;0.88;;;;;;;;;;5066975;28;20302;-85
2022/02/23 02:19:42;;;;;;;1.30;0.80;;;4.70;99.90;;;;;;5066906;28;20203;-85
2022/02/23 02:22:12;;;;;;;1.60;0.82;;;4.70;99.90;;;;;;5066614;28;20245;-85
2022/02/23 02:24:42;;;;;;;1.80;0.90;;;4.70;99.90;;;;;;5066612;28;20195;-84
2022/02/23 02:27:11;;;;;;;2.63;1.10;;;4.60;99.90;;;;;;5066280;28;20195;-84
2022/02/23 02:29:40;;;;;;;5.38;1.27;;;4.40;99.90;;;;;;5062688;28;20631;-85
2022/02/23 02:32:09;;;;;;;1.77;0.90;;;4.10;99.90;;;;;;5070442;28;20198;-85
2022/02/23 02:34:37;;;;;;;3.00;1.08;;;1.70;99.90;;;;;;5070508;28;20747;-85
2022/02/23 02:37:05;;;;;;;2.38;1.00;;;4.50;99.90;;;;;;5069262;28;20200;-85
2022/02/23 02:39:35;;;;;;;1.70;1.27;;;4.50;99.90;;;;;;5070408;28;20196;-85
2022/02/23 02:42:02;;;;;;;9.98;1.27;;;4.60;99.90;;;;;;5062685;28;20196;-85
2022/02/23 02:44:30;;;;;;;5.15;1.27;;;;;;;;;;5070034;28;20195;-85
2022/02/23 02:46:57;;;;;;;0.70;0.70;;;4.50;99.90;;;;;;5069864;28;20191;-84
2022/02/23 02:49:24;;;;;;;2.65;1.20;;;;;;;;;;5070150;28;20324;-84
2022/02/23 02:51:51;;;;;;;3.28;1.15;;;;;;;;;;5067208;28;20203;-84
2022/02/23 02:54:18;;;;;;;4.72;1.52;;;4.50;99.90;;;;;;5058840;28;20203;-84
2022/02/23 02:56:47;;;;;;;1.77;1.67;;;4.50;99.90;;;;;;5069332;28;20270;-83
2022/02/23 02:59:14;;;;;;;4.03;1.50;;;;;;;;;;5070272;28;20302;-83
2022/02/23 03:01:42;;;;;;;3.45;1.10;;;4.40;99.90;;;;;;5070496;28;20245;-83
2022/02/23 03:04:09;;;;;;;3.92;1.38;;;4.50;99.90;;;;;;5069988;28;20612;-83
2022/02/23 03:06:36;;;;;;;0.80;0.73;;;4.50;99.90;;;;;;5069977;28;20207;-83
2022/02/23 03:09:05;;;;;;;5.70;1.38;;;4.00;99.90;;;;;;5070694;28;20227;-83
2022/02/23 03:11:32;;;;;;;2.08;1.15;;;4.60;99.90;;;;;;5070097;28;20538;-84
2022/02/23 03:14:00;;;;;;;1.35;1.08;;;4.60;99.90;;;;;;5070604;28;20207;-83
2022/02/23 03:16:28;;;;;;;2.00;1.17;;;;;;;;;;5069438;28;20207;-83
2022/02/23 03:18:55;;;;;;;5.47;1.40;;;;;;;;;;5070204;28;20371;-84
2022/02/23 03:21:22;;;;;;;1.60;0.95;;;5.60;99.90;;;;;;5070821;28;20196;-83
2022/02/23 03:23:49;;;;;;;10.57;1.98;;;;;;;;;;5070327;28;20308;-83
2022/02/23 03:26:16;;;;;;;3.92;1.55;;;;;;;;;;5062520;28;20242;-83
2022/02/23 03:28:44;;;;;;;6.93;1.77;;;4.50;99.90;;;;;;5068381;28;20218;-83
2022/02/23 03:31:12;;;;;;;5.20;1.50;;;4.30;99.90;;;;;;5069611;28;20555;-84
2022/02/23 03:33:42;;;;;;;4.03;1.35;;;;;;;;;;5069858;28;20207;-83
2022/02/23 03:36:10;;;;;;;3.08;1.00;;;4.70;99.90;;;;;;5069783;28;20199;-84
2022/02/23 03:38:37;;;;;;;8.73;2.03;;;;;;;;;;5070053;28;20544;-83
2022/02/23 03:41:04;;;;;;;4.05;2.45;;;4.40;99.90;;;;;;5069391;28;20565;-83
2022/02/23 03:43:31;;;;;;;2.60;1.90;;;4.40;99.90;;;;;;5069415;28;20534;-83
2022/02/23 03:45:58;;;;;;;4.35;1.95;;;;;;;;;;5069741;28;20245;-83
2022/02/23 03:48:27;;;;;;;4.28;1.48;;;4.30;99.90;;;;;;5069373;28;20195;-83
2022/02/23 03:50:54;;;;;;;2.65;1.38;;;;;;;;;;5069729;28;20281;-83
2022/02/23 03:53:21;;;;;;;2.85;1.15;;;;;;;;;;5069529;28;20203;-83
2022/02/23 03:55:48;;;;;;;4.10;1.33;;;4.60;99.90;;;;;;5069794;28;20199;-83
2022/02/23 03:58:15;;;;;;;6.47;1.60;;;4.10;99.90;;;;;;5066222;28;20729;-83
2022/02/23 04:00:43;;;;;;;7.30;1.23;;;3.90;99.90;;;;;;5068089;28;20204;-83
2022/02/23 04:03:09;;;;;;;2.10;1.30;;;4.00;99.90;;;;;;5069324;28;20200;-82
2022/02/23 04:05:38;;;;;;;12.05;2.25;;;3.70;99.90;;;;;;5070041;28;20208;-83
2022/02/23 04:08:05;;;;;;;5.40;1.63;;;;;;;;;;5068918;28;20260;-83
2022/02/23 04:10:32;;;;;;;6.57;1.73;;;;;;;;;;5069406;28;20270;-83
2022/02/23 04:12:59;;;;;;;1.02;0.80;;;4.10;99.90;;;;;;5068553;28;20198;-83
2022/02/23 04:15:26;;;;;;;13.90;2.45;;;;;;;;;;5069478;28;20634;-83
2022/02/23 04:17:53;;;;;;;3.10;1.33;;;3.80;99.90;;;;;;5068884;28;20209;-83
2022/02/23 04:20:20;;;;;;;1.52;1.35;;;3.80;99.90;;;;;;5062564;28;20261;-83
2022/02/23 04:22:48;;;;;;;3.15;1.80;;;4.10;99.90;;;;;;5069417;28;20510;-83
2022/02/23 04:25:16;;;;;;;3.17;1.67;;;;;;;;;;5069823;28;20192;-83
2022/02/23 04:27:43;;;;;;;2.38;1.27;;;4.00;99.90;;;;;;5068835;28;20237;-83
2022/02/23 04:30:11;;;;;;;1.70;1.00;;;4.10;99.90;;;;;;5069045;28;20231;-83
2022/02/23 04:32:37;;;;;;;2.55;1.63;;;3.90;99.90;;;;;;5068900;28;20325;-83
2022/02/23 04:35:05;;;;;;;3.63;2.00;;;4.10;99.90;;;;;;5068563;28;20199;-83
2022/02/23 04:37:32;;;;;;;2.70;1.48;;;4.10;99.90;;;;;;5066921;28;20278;-82
2022/02/23 04:40:01;;;;;;;2.10;1.40;;;;;;;;;;5064511;28;20562;-83
2022/02/23 04:42:28;;;;;;;2.78;1.77;;;5.00;99.90;;;;;;5053497;28;20211;-83
2022/02/23 04:45:00;;;;;;;1.77;1.33;;;;;;;;;;5068381;28;20280;-83
2022/02/23 04:47:28;;;;;;;7.15;1.90;;;3.80;99.90;;;;;;5068227;28;20206;-84
2022/02/23 04:49:55;;;;;;;5.35;1.77;;;;;;;;;;5068291;28;20211;-83
2022/02/23 04:52:24;;;;;;;3.20;1.45;;;4.60;99.90;;;;;;5067148;28;20619;-83
2022/02/23 04:54:52;;;;;;;2.45;1.65;;;4.30;99.90;;;;;;5068313;28;20200;-83
2022/02/23 04:57:20;;;;;;;8.55;1.58;;;4.20;99.90;;;;;;5068040;28;20206;-83
2022/02/23 04:59:48;;;;;;;3.97;1.98;;;;;;;;;;5068568;28;20207;-83
2022/02/23 05:02:14;;;;;;;3.17;1.70;;;4.20;99.90;;;;;;5066447;28;20297;-83
2022/02/23 05:04:42;;;;;;;2.42;1.50;;;;;;;;;;5065793;28;20326;-83
2022/02/23 05:07:09;;;;;;;2.75;1.67;;;4.20;99.90;;;;;;5067080;28;20609;-83
2022/02/23 05:09:37;;;;;;;1.30;1.17;;;4.40;99.90;;;;;;5068593;28;20234;-83
2022/02/23 05:12:06;;;;;;;2.30;1.40;;;4.10;99.90;;;;;;5060650;28;20209;-83
2022/02/23 05:14:35;;;;;;;4.28;1.85;;;4.00;99.90;;;;;;5066294;28;20234;-83
2022/02/23 05:17:02;;;;;;;3.47;1.60;;;4.30;99.90;;;;;;5065945;28;20199;-83
2022/02/23 05:19:31;;;;;;;4.50;2.00;;;;;;;;;;5065950;28;20282;-82
2022/02/23 05:21:59;;;;;;;11.23;2.38;;;;;;;;;;5066849;28;20195;-83
2022/02/23 05:24:28;;;;;;;5.95;3.08;;;;;;;;;;5066720;28;20210;-82
2022/02/23 05:26:55;;;;;;;9.18;4.00;;;3.90;99.90;;;;;;5065703;28;20218;-83
2022/02/23 05:29:22;;;;;;;3.80;3.10;;;4.20;99.90;;;;;;5066625;28;20775;-83
2022/02/23 05:31:50;;;;;;;3.40;2.60;;;3.70;99.90;;;;;;5067803;28;20244;-83
2022/02/23 05:34:17;;;;;;;3.58;2.88;;;3.70;99.90;;;;;;5067351;28;20212;-83
2022/02/23 05:36:44;;;;;;;5.38;3.40;;;;;;;;;;5067826;28;20286;-84
2022/02/23 05:39:11;;;;;;;8.50;3.25;;;3.70;99.90;;;;;;5067485;28;20211;-83
2022/02/23 05:41:38;;;;;;;3.60;2.85;;;;;;;;;;5068044;28;20290;-83
2022/02/23 05:44:06;;;;;;;5.15;3.45;;;3.90;99.90;;;;;;5067543;28;20207;-83
2022/02/23 05:46:32;;;;;;;3.83;3.30;;;3.90;99.90;;;;;;5067345;28;20230;-83
2022/02/23 05:49:01;;;;;;;8.20;3.83;;;3.70;99.90;;;;;;5067830;28;20242;-83
2022/02/23 05:51:30;;;;;;;7.95;3.60;;;3.80;99.90;;;;;;5067593;28;20286;-83
2022/02/23 05:53:58;;;;;;;5.90;3.85;;;;;;;;;;5067257;28;20207;-83
2022/02/23 05:56:25;;;;;;;4.13;3.55;;;3.80;99.90;;;;;;5067147;28;20199;-83
2022/02/23 05:58:52;;;;;;;4.38;2.55;;;3.70;99.90;;;;;;5060179;28;20200;-83
2022/02/23 06:01:19;;;;;;;6.72;3.30;;;3.80;99.90;;;;;;5064237;28;20291;-83
2022/02/23 06:03:46;;;;;;;8.95;3.20;;;;;;;;;;5069931;28;20199;-83
2022/02/23 06:06:14;;;;;;;6.25;3.22;;;3.70;99.90;;;;;;5071647;28;20223;-83
2022/02/23 06:08:41;;;;;;;4.25;2.60;;;;;;;;;;5070600;28;20287;-83
2022/02/23 06:11:09;;;;;;;8.38;3.67;;;;;;;;;;5063010;28;20924;-84
2022/02/23 06:13:36;;;;;;;5.15;2.63;;;;;;;;;;5070096;28;20272;-83
2022/02/23 06:16:03;;;;;;;4.03;2.70;;;;;;;;;;5070744;28;20235;-83
2022/02/23 06:18:31;;;;;;;6.28;4.70;;;;;;;;;;5070112;28;20274;-83
2022/02/23 06:20:59;;;;;;;4.85;2.80;;;;;;;;;;5069523;28;20203;-83
2022/02/23 06:23:28;;;;;;;9.10;3.50;;;3.60;99.90;;;;;;5071685;28;20203;-83
2022/02/23 06:25:55;;;;;;;3.67;3.03;;;3.60;99.90;;;;;;5070442;28;20206;-83
2022/02/23 06:28:22;;;;;;;7.15;3.08;;;3.40;99.90;;;;;;5069836;28;20282;-83
2022/02/23 06:30:49;;;;;;;8.25;2.58;;;3.30;99.90;;;;;;5065032;28;20309;-83
2022/02/23 06:33:22;;;;;;;7.05;3.50;;;3.20;99.90;;;;;;5062237;28;20309;-83
2022/02/23 06:35:49;;;;;;;5.75;2.92;;;;;;;;;;5069972;28;20195;-83
2022/02/23 06:38:16;;;;;;;4.93;3.60;;;;;;;;;;5070001;28;20199;-83
2022/02/23 06:40:45;;;;;;;5.13;3.03;;;3.30;99.90;;;;;;5065692;28;20298;-83
2022/02/23 06:43:15;;;;;;;2.92;2.72;;;3.30;99.90;;;;;;5071195;28;20211;-83
2022/02/23 06:45:42;;;;;;;4.25;2.95;;;4.20;99.90;;;;;;5070269;28;20234;-83
2022/02/23 06:48:09;;;;;;;5.40;3.30;;;3.20;99.90;;;;;;5059453;28;20214;-83
2022/02/23 06:50:36;;;;;;;10.13;3.60;;;3.30;99.90;;;;;;5053444;28;20231;-83
2022/02/23 06:53:03;;;;;;;4.07;3.17;;;;;;;;;;5070515;28;20226;-83
2022/02/23 06:55:30;;;;;;;4.20;3.47;;;;;;;;;;5069830;28;20276;-83
2022/02/23 06:57:59;;;;;;;4.38;3.35;;;3.10;99.90;;;;;;5064810;28;20895;-83
2022/02/23 07:00:27;;;;;;;3.60;3.25;;;3.30;99.90;;;;;;5060376;28;20200;-82
2022/02/23 07:02:54;;;;;;;5.22;4.45;;;3.50;99.90;;;;;;5053457;28;20211;-84
2022/02/23 07:05:30;;;;;;;8.10;4.80;;;3.10;99.90;;;;;;5070133;28;20226;-84
2022/02/23 07:07:58;;;;;;;7.05;4.47;;;;;;;;;;5065282;28;20745;-84
2022/02/23 07:10:28;;;;;;;8.65;4.75;;;3.10;99.90;;;;;;5070028;28;20231;-84
2022/02/23 07:12:55;;;;;;;4.85;3.92;;;;;;;;;;5049776;28;20295;-83
2022/02/23 07:15:25;;;;;;;15.13;5.22;;;3.60;99.90;;;;;;5063275;28;20206;-84
2022/02/23 07:17:52;;;;;;;9.35;4.68;;;;;;;;;;5052632;28;20290;-83
2022/02/23 07:20:21;;;;;;;7.40;4.47;;;3.60;99.90;;;;;;5054124;28;20281;-84
2022/02/23 07:22:49;;;;;;;7.35;4.50;;;;;;;;;;5052232;28;20590;-84
2022/02/23 07:25:16;;;;;;;4.65;3.55;;;;;;;;;;5070361;28;20590;-83
2022/02/23 07:27:43;;;;;;;7.13;3.50;;;;;;;;;;5070366;28;20207;-84
2022/02/23 07:30:13;;;;;;;6.05;4.20;;;3.00;99.90;;;;;;5068998;28;20307;-83
2022/02/23 07:32:41;;;;;;;7.43;4.32;;;3.80;99.90;;;;;;5070251;28;20715;-83
2022/02/23 07:35:11;;;;;;;6.85;4.20;;;4.90;99.90;;;;;;5062549;28;20204;-84
2022/02/23 07:37:38;;;;;;;4.97;4.45;;;;;;;;;;5050060;28;20275;-84
2022/02/23 07:40:10;;;;;;;5.70;4.43;;;4.10;99.90;;;;;;5068585;28;20210;-84
2022/02/23 07:42:38;;;;;;;6.63;4.07;;;4.30;99.90;;;;;;5069948;28;20215;-83
2022/02/23 07:45:06;;;;;;;5.80;3.63;;;4.40;99.90;;;;;;5068984;28;20207;-84
2022/02/23 07:47:33;;;;;;;7.03;3.38;;;4.40;99.90;;;;;;5061234;28;20939;-84
2022/02/23 07:50:01;;;;;;;3.58;3.10;;;4.50;99.90;;;;;;5069763;28;20230;-84
2022/02/23 07:52:30;;;;;;;5.82;3.42;;;5.10;99.90;;;;;;5062095;28;20287;-84
2022/02/23 07:54:57;;;;;;;6.70;4.28;;;;;;;;;;5058328;28;20241;-84
2022/02/23 07:57:25;;;;;;;8.18;4.25;;;;;;;;;;5050932;28;20285;-84
2022/02/23 07:59:52;;;;;;;4.65;3.45;;;4.70;99.90;;;;;;5051749;28;20199;-84
2022/02/23 08:02:20;;;;;;;10.48;4.00;;;;;;;;;;5061356;28;20253;-84
2022/02/23 08:04:51;;;;;;;5.07;3.85;;;;;;;;;;5055335;28;20278;-84
2022/02/23 08:07:21;;;;;;;7.80;3.47;;;5.90;99.90;;;;;;5054277;28;20278;-84
2022/02/23 08:09:48;;;;;;;13.45;4.47;;;5.30;99.90;;;;;;5069347;28;20199;-84
2022/02/23 08:12:15;;;;;;;3.88;3.58;;;;;;;;;;5069355;28;20838;-84
2022/02/23 08:14:42;;;;;;;4.70;3.92;;;5.50;99.90;;;;;;5068704;28;20654;-84
2022/02/23 08:19:53;;;;;;;9.00;3.53;;;;;;;;;;5068912;28;20939;-84
2022/02/23 08:22:28;;;;;;;5.13;2.75;;;5.80;99.90;;;;;;5068939;28;20199;-84
2022/02/23 08:24:55;;;;;;;7.90;3.58;;;5.80;99.90;;;;;;5068259;28;20429;-84
2022/02/23 08:27:24;;;;;;;3.38;3.08;;;6.00;99.90;;;;;;5068182;28;20230;-84
2022/02/23 08:29:52;;;;;;;4.70;2.40;;;6.20;99.90;;;;;;5069308;28;20249;-84
2022/02/23 08:32:22;;;;;;;3.50;2.10;;;6.20;99.90;;;;;;5068972;28;20211;-84
2022/02/23 08:34:51;;;;;;;5.85;2.47;;;6.90;99.90;;;;;;5066831;28;20685;-84
2022/02/23 08:37:18;;;;;;;7.07;3.05;;;;;;;;;;5068699;28;20249;-84
2022/02/23 08:39:48;;;;;;;3.05;2.17;;;6.40;99.90;;;;;;5068183;28;20258;-84
2022/02/23 08:42:17;;;;;;;6.88;2.00;;;6.60;99.90;;;;;;5068508;28;20712;-84
2022/02/23 08:44:44;;;;;;;5.00;2.10;;;;;;;;;;5068239;28;20196;-84
2022/02/23 08:47:12;;;;;;;1.63;1.52;;;6.90;99.90;;;;;;5058423;28;20269;-84
2022/02/23 08:49:39;;;;;;;2.35;1.67;;;9.30;99.90;;;;;;5051588;28;20230;-84
2022/02/23 08:52:08;;;;;;;2.55;1.65;;;7.10;99.90;;;;;;5058357;28;20289;-84
2022/02/23 08:54:35;;;;;;;1.67;1.50;;;;;;;;;;5068335;28;20204;-84
2022/02/23 08:57:04;;;;;;;4.55;1.95;;;8.00;99.90;;;;;;5060383;28;20200;-84
2022/02/23 08:59:32;;;;;;;2.85;1.90;;;;;;;;;;5063404;28;20282;-84
2022/02/23 09:01:59;;;;;;;3.40;1.92;;;;;;;;;;5067829;28;20278;-84
2022/02/23 09:04:26;;;;;;;3.17;1.92;;;;;;;;;;5062648;28;20291;-85
2022/02/23 09:06:54;;;;;;;2.22;1.30;;;;;;;;;;5068118;28;20200;-84
2022/02/23 09:09:22;;;;;;;3.17;1.90;;;7.70;99.90;;;;;;5067501;28;20778;-84
2022/02/23 09:11:49;;;;;;;3.50;1.83;;;;;;;;;;5066905;28;20259;-84
2022/02/23 09:14:18;;;;;;;1.85;1.63;;;7.60;99.90;;;;;;5067758;28;20777;-84
2022/02/23 09:16:45;;;;;;;3.72;1.42;;;;;;;;;;5053584;28;20257;-84
2022/02/23 09:19:12;;;;;;;2.72;1.55;;;7.70;99.90;;;;;;5066811;28;20746;-84
2022/02/23 09:21:40;;;;;;;1.83;1.50;;;;;;;;;;5066559;28;20261;-85
2022/02/23 09:24:07;;;;;;;1.90;1.70;;;;;;;;;;5067798;28;20198;-85
2022/02/23 09:26:35;;;;;;;3.38;1.85;;;;;;;;;;5068428;28;20204;-84
2022/02/23 09:29:02;;;;;;;3.13;2.40;;;;;;;;;;5067645;28;20196;-84
2022/02/23 09:31:31;;;;;;;1.83;1.73;;;8.20;99.90;;;;;;5067974;28;20249;-84
2022/02/23 09:33:58;;;;;;;2.60;1.63;;;8.70;99.90;;;;;;5067573;28;20559;-85
2022/02/23 09:36:26;;;;;;;3.65;1.70;;;;;;;;;;5067879;28;20209;-85
2022/02/23 09:38:53;;;;;;;6.15;1.42;;;8.40;99.90;;;;;;5067144;28;20269;-84
2022/02/23 09:41:22;;;;;;;3.42;1.63;;;8.20;98.50;;;;;;5064504;28;20208;-84
2022/02/23 09:43:52;;;;;;;3.83;1.93;;;;;;;;;;5067612;28;20200;-84
2022/02/23 09:46:21;;;;;;;2.25;1.35;;;8.10;98.10;;;;;;5067344;28;20626;-84
2022/02/23 09:48:50;;;;;;;2.73;1.63;;;8.20;99.00;;;;;;5067546;28;20705;-84
2022/02/23 09:51:17;;;;;;;4.90;1.88;;;;;;;;;;5067442;28;20814;-85
2022/02/23 09:53:46;;;;;;;2.00;1.20;;;;;;;;;;5065213;28;20221;-84
2022/02/23 09:56:14;;;;;;;4.57;1.50;;;;;;;;;;5066540;28;20720;-85
2022/02/23 09:58:41;;;;;;;5.40;2.93;;;;;;;;;;5060833;28;20624;-85
2022/02/23 10:01:09;;;;;;;1.80;1.63;;;8.30;95.70;;;;;;5061446;28;20635;-85
2022/02/23 10:03:38;;;;;;;2.43;1.40;;;;;;;;;;5054382;28;21001;-85
2022/02/23 10:06:06;;;;;;;6.77;2.00;;;8.30;99.90;;;;;;5057990;28;20629;-85
2022/02/23 10:08:37;;;;;;;0.93;0.93;;;8.50;95.90;;;;;;5064305;28;20630;-85
2022/02/23 10:11:05;;;;;;;4.03;1.40;;;;;;;;;;5067053;28;20934;-85
2022/02/23 10:13:33;;;;;;;3.63;1.20;;;;;;;;;;5067359;28;20688;-85
2022/02/23 10:16:00;;;;;;;4.10;1.70;;;;;;;;;;5067588;28;20620;-85
2022/02/23 10:18:30;;;;;;;3.00;2.70;;;;;;;;;;5066934;28;20660;-85
2022/02/23 10:20:57;;;;;;;3.20;1.40;;;8.80;96.70;;;;;;5067268;28;20690;-85
2022/02/23 10:23:28;;;;;;;1.57;1.40;;;;;;;;;;5048533;28;20665;-85
2022/02/23 10:25:58;;;;;;;4.90;1.70;;;8.80;94.10;;;;;;5061316;28;20721;-84
2022/02/23 10:28:28;;;;;;;5.13;1.40;;;8.90;93.90;;;;;;5066568;28;20259;-84
2022/02/23 10:30:57;;;;;;;1.83;1.40;;;9.00;97.00;;;;;;5067100;28;20717;-84
2022/02/23 10:33:26;;;;;;;1.60;1.33;;;9.00;94.10;;;;;;5067064;28;20976;-84
2022/02/23 10:35:57;;;;;;;4.00;1.90;;;9.00;93.90;;;;;;5067418;28;20632;-85
2022/02/23 10:38:27;;;;;;;3.07;1.40;;;8.90;93.80;;;;;;5067331;28;20637;-85
2022/02/23 10:40:56;;;;;;;1.17;1.07;;;8.80;93.30;;;;;;5057712;28;20628;-85
2022/02/23 10:43:28;;;;;;;2.77;1.17;;;8.90;94.30;;;;;;5066749;28;21213;-85
2022/02/23 10:46:03;;;;;;;1.80;1.47;;;9.10;97.50;;;;;;5067426;28;20660;-85
2022/02/23 10:48:31;;;;;;;6.20;1.50;;;8.90;93.60;;;;;;5051911;28;21231;-84
2022/02/23 10:50:58;;;;;;;3.43;1.20;;;;;;;;;;5070379;28;20661;-85
2022/02/23 10:53:28;;;;;;;2.23;1.57;;;;;;;;;;5070437;28;20649;-85
2022/02/23 10:55:55;;;;;;;5.43;1.90;;;9.00;93.60;;;;;;5070808;28;20743;-84
2022/02/23 10:58:25;;;;;;;3.80;1.70;;;9.20;94.10;;;;;;5069517;28;20681;-85
2022/02/23 11:00:55;;;;;;;5.03;1.73;;;9.30;94.00;;;;;;5070232;28;20632;-85
2022/02/23 11:03:23;;;;;;;1.63;1.53;;;;;;;;;;5069342;28;20681;-84
2022/02/23 11:05:50;;;;;;;3.60;1.93;;;;;;;;;;5068834;28;20748;-85
2022/02/23 11:08:17;;;;;;;3.17;1.70;;;;;;;;;;5068471;28;20666;-85
2022/02/23 11:10:48;;;;;;;2.30;1.70;;;9.30;92.70;;;;;;5064771;28;20624;-85
2022/02/23 11:13:16;;;;;;;4.90;2.00;;;9.30;92.60;;;;;;5054015;28;21194;-85
2022/02/23 11:15:45;;;;;;;3.00;1.60;;;8.90;98.20;;;;;;5067687;28;20633;-85
2022/02/23 11:18:15;;;;;;;7.67;1.80;;;8.90;93.30;;;;;;5067368;28;20620;-86
2022/02/23 11:20:43;;;;;;;3.87;1.70;;;8.80;92.40;;;;;;5070058;28;20620;-85
2022/02/23 11:23:17;;;;;;;2.40;1.60;;;8.90;93.30;;;;;;5070440;28;20624;-84
2022/02/23 11:25:48;;;;;;;1.90;1.53;;;9.10;92.40;;;;;;5050389;28;20626;-85
2022/02/23 11:28:23;;;;;;;3.50;2.07;;;9.10;92.60;;;;;;5053297;28;20633;-85
2022/02/23 11:30:52;;;;;;;1.87;1.53;;;9.30;93.00;;;;;;5054134;28;20669;-85
2022/02/23 11:33:43;;;;;;;3.77;1.60;;;9.40;93.40;;;;;;5069990;28;20640;-85
2022/02/23 11:36:21;;;;;;;4.90;1.77;;;9.50;99.90;;;;;;5064830;28;20662;-85
2022/02/23 11:38:49;;;;;;;2.43;1.50;;;9.60;93.80;;;;;;5067802;28;20690;-85
2022/02/23 11:41:24;;;;;;;3.77;1.90;;;9.60;91.50;;;;;;5070158;28;20633;-84
2022/02/23 11:43:57;;;;;;;2.50;1.50;;;9.00;91.40;;;;;;5069657;28;20728;-85
2022/02/23 11:53:13;;;;;;;11.10;1.67;;;9.60;99.90;;;;;;5069400;28;20668;-86
2022/02/23 12:01:48;;;;;;;3.90;1.93;;;9.90;92.10;;;;;;5049472;28;21156;-84
2022/02/23 12:04:17;;;;;;;4.03;1.50;;;10.00;99.90;;;;;;5067656;28;20640;-85
2022/02/23 12:07:10;;;;;;;2.10;1.93;;;10.00;97.40;;;;;;5069415;28;20629;-85
2022/02/23 12:10:08;;;;;;;4.90;2.30;;;9.80;99.90;;;;;;5061545;28;21387;-85
2022/02/23 12:12:56;;;;;;;2.93;1.97;;;10.00;91.30;;;;;;5069384;28;20661;-86
2022/02/23 12:15:33;;;;;;;5.13;2.13;;;10.10;99.90;;;;;;5049468;28;20634;-86
2022/02/23 12:18:01;;;;;;;2.00;1.50;;;;;;;;;;5057809;28;20617;-85
2022/02/23 12:20:50;;;;;;;4.20;1.70;;;10.00;99.90;;;;;;5068693;28;20610;-85
2022/02/23 12:23:35;;;;;;;4.87;1.70;;;10.10;98.60;;;;;;5069090;28;20628;-85
2022/02/23 12:26:15;;;;;;;2.80;1.63;;;10.20;90.00;;;;;;5068120;28;20617;-85
2022/02/23 12:28:47;;;;;;;8.40;2.03;;;10.50;99.90;;;;;;5063849;28;20621;-85
2022/02/23 12:31:18;;;;;;;4.27;1.40;;;10.00;99.90;;;;;;5066017;28;21025;-85
2022/02/23 12:33:47;;;;;;;3.83;1.77;;;10.20;94.70;;;;;;5066767;28;20653;-85
2022/02/23 12:36:16;;;;;;;3.90;2.20;;;10.80;99.90;;;;;;5066420;28;20626;-85
2022/02/23 12:38:46;;;;;;;3.33;2.00;;;10.70;99.90;;;;;;5068282;28;20683;-85
2022/02/23 12:41:17;;;;;;;2.13;1.87;;;10.10;99.90;;;;;;5054367;28;20622;-85
2022/02/23 12:43:55;;;;;;;3.20;1.93;;;10.30;99.90;;;;;;5058044;28;20744;-85
2022/02/23 12:46:22;;;;;;;5.77;1.97;;;10.20;94.30;;;;;;5068308;28;20724;-85
2022/02/23 12:48:50;;;;;;;4.37;2.60;;;;;;;;;;5068379;28;20629;-85
2022/02/23 12:51:20;;;;;;;6.83;2.17;;;10.40;87.80;;;;;;5066484;28;20995;-85
2022/02/23 12:53:48;;;;;;;4.47;2.20;;;11.20;88.40;;;;;;5056475;28;20992;-84
2022/02/23 12:56:16;;;;;;;3.30;2.10;;;10.20;89.00;;;;;;5058488;28;21212;-85
2022/02/23 12:58:45;;;;;;;6.67;1.90;;;10.30;92.80;;;;;;5064489;28;20656;-85
2022/02/23 13:01:18;;;;;;;3.57;1.63;;;10.20;87.50;;;;;;5061671;28;21035;-85
2022/02/23 13:03:45;;;;;;;2.20;1.67;;;10.10;98.70;;;;;;5062624;28;20620;-85
2022/02/23 13:06:13;;;;;;;3.40;1.70;;;10.10;99.40;;;;;;5067780;28;20633;-86
2022/02/23 13:08:40;;;;;;;4.00;1.97;;;10.20;95.70;;;;;;5068002;28;20676;-85
2022/02/23 13:11:07;;;;;;;2.60;1.60;;;10.60;99.90;;;;;;5055994;28;21007;-85
2022/02/23 13:13:35;;;;;;;3.40;1.20;;;10.00;95.40;;;;;;5067227;28;20745;-86
2022/02/23 13:16:05;;;;;;;5.10;1.93;;;10.20;96.70;;;;;;5068147;28;21165;-85
2022/02/23 13:18:32;;;;;;;4.23;1.50;;;9.90;96.70;;;;;;5066798;28;20662;-87
2022/02/23 13:21:09;;;;;;;2.13;1.30;;;9.90;99.90;;;;;;5066847;28;20756;-86
2022/02/23 13:23:54;;;;;;;3.03;1.70;;;9.50;98.80;;;;;;5067876;28;20657;-86
2022/02/23 13:26:28;;;;;;;3.73;1.40;;;10.50;99.60;;;;;;5063179;28;20675;-86
2022/02/23 13:29:02;;;;;;;3.03;1.50;;;11.20;96.90;;;;;;5065968;28;21264;-86
2022/02/23 13:31:42;;;;;;;2.50;1.80;;;10.40;97.70;;;;;;5068167;28;20654;-86
2022/02/23 13:34:31;;;;;;;1.63;1.20;;;10.20;96.10;;;;;;5062901;28;20657;-86
2022/02/23 13:37:01;;;;;;;3.87;1.50;;;10.50;91.40;;;;;;5068025;28;20695;-86
2022/02/23 13:39:30;;;;;;;1.47;1.37;;;10.50;94.20;;;;;;5066948;28;20699;-86
2022/02/23 13:42:00;;;;;;;5.63;1.83;;;10.90;95.10;;;;;;5048234;28;20635;-86
2022/02/23 13:44:30;;;;;;;1.60;1.17;;;10.60;93.80;;;;;;5064147;28;20712;-86
2022/02/23 13:47:04;;;;;;;4.10;1.73;;;10.50;95.90;;;;;;5067807;28;20617;-86
2022/02/23 13:49:32;;;;;;;3.17;1.57;;;10.50;84.20;;;;;;5067298;28;20660;-86
2022/02/23 13:52:00;;;;;;;2.23;1.40;;;10.40;94.70;;;;;;5066658;28;20752;-86